createdAt,value
2023-04-27T00:00:15.589Z,99158.64
2023-04-27T00:01:12.698Z,99158.10
2023-04-27T00:01:46.620Z,99159.04
2023-04-27T00:02:19.980Z,99159.07
2023-04-27T00:02:53.604Z,99161.27
2023-04-27T00:03:27.629Z,99159.79
2023-04-27T00:04:02.053Z,99159.13
2023-04-27T00:04:36.356Z,99163.76
2023-04-27T00:05:11.901Z,99162.39
2023-04-27T00:05:45.412Z,99160.86
2023-04-27T00:06:19.004Z,99163.65
2023-04-27T00:06:52.480Z,99162.58
2023-04-27T00:07:26.797Z,99159.43
2023-04-27T00:08:00.008Z,99159.92
2023-04-27T00:08:33.241Z,99158.91
2023-04-27T00:09:06.343Z,99155.95
2023-04-27T00:09:39.403Z,99158.52
2023-04-27T00:10:12.652Z,99161.12
2023-04-27T00:10:46.264Z,99160.77
2023-04-27T00:11:19.495Z,99161.52
2023-04-27T00:11:52.727Z,99160.17
2023-04-27T00:12:25.924Z,99160.30
2023-04-27T00:12:59.108Z,99159.68
2023-04-27T00:13:32.232Z,99158.23
2023-04-27T00:14:05.416Z,99159.02
2023-04-27T00:14:38.603Z,99160.58
2023-04-27T00:15:11.883Z,99159.20
2023-04-27T00:15:45.640Z,99158.85
2023-04-27T00:16:18.872Z,99159.73
2023-04-27T00:16:51.939Z,99160.56
2023-04-27T00:17:25.253Z,99160.64
2023-04-27T00:17:58.629Z,99164.58
2023-04-27T00:18:32.421Z,99163.87
2023-04-27T00:19:05.669Z,99162.33
2023-04-27T00:19:39.959Z,99163.34
2023-04-27T00:20:13.191Z,99163.23
2023-04-27T00:20:46.341Z,99160.49
2023-04-27T00:21:19.495Z,99162.41
2023-04-27T00:21:52.669Z,99164.72
2023-04-27T00:22:25.849Z,99164.75
2023-04-27T00:22:59.015Z,99163.90
2023-04-27T00:23:32.124Z,99161.35
2023-04-27T00:24:05.654Z,99160.48
2023-04-27T00:24:38.967Z,99161.05
2023-04-27T00:25:12.406Z,99161.41
2023-04-27T00:25:45.642Z,99162.13
2023-04-27T00:26:18.927Z,99159.08
2023-04-27T00:26:52.137Z,99160.73
2023-04-27T00:27:25.395Z,99160.83
2023-04-27T00:27:58.469Z,99160.83
2023-04-27T00:28:31.689Z,99158.97
2023-04-27T00:29:04.973Z,99157.44
2023-04-27T00:29:38.155Z,99158.71
2023-04-27T00:30:11.411Z,99156.48
2023-04-27T00:30:45.354Z,99155.30
2023-04-27T00:31:18.565Z,99154.50
2023-04-27T00:31:51.756Z,99159.15
2023-04-27T00:32:25.045Z,99159.17
2023-04-27T00:32:58.313Z,99155.73
2023-04-27T00:33:31.544Z,99156.90
2023-04-27T00:34:04.902Z,99162.63
2023-04-27T00:34:38.693Z,99157.91
2023-04-27T00:35:12.072Z,99159.35
2023-04-27T00:35:45.307Z,99157.59
2023-04-27T00:36:18.633Z,99159.84
2023-04-27T00:36:52.296Z,99157.40
2023-04-27T00:37:25.436Z,99160.52
2023-04-27T00:37:58.665Z,99161.20
2023-04-27T00:38:31.900Z,99160.14
2023-04-27T00:39:06.562Z,99158.96
2023-04-27T00:39:39.979Z,99156.00
2023-04-27T00:40:13.326Z,99160.52
2023-04-27T00:40:46.500Z,99158.77
2023-04-27T00:41:19.695Z,99156.86
2023-04-27T00:41:53.852Z,99158.60
2023-04-27T00:42:26.990Z,99159.12
2023-04-27T00:43:00.209Z,99155.67
2023-04-27T00:43:34.038Z,99156.55
2023-04-27T00:44:07.204Z,99153.77
2023-04-27T00:44:40.472Z,99155.67
2023-04-27T00:45:13.783Z,99157.56
2023-04-27T00:45:47.405Z,99154.95
2023-04-27T00:46:21.030Z,99156.85
2023-04-27T00:46:54.644Z,99158.95
2023-04-27T00:47:29.392Z,99159.84
2023-04-27T00:48:02.565Z,99159.31
2023-04-27T00:48:35.799Z,99158.27
2023-04-27T00:49:09.021Z,99160.22
2023-04-27T00:49:42.297Z,99158.69
2023-04-27T00:50:16.477Z,99159.95
2023-04-27T00:50:49.883Z,99160.08
2023-04-27T00:51:27.971Z,99155.79
2023-04-27T00:52:01.361Z,99153.70
2023-04-27T00:52:36.339Z,99155.62
2023-04-27T00:53:09.694Z,99154.96
2023-04-27T00:53:43.643Z,99156.20
2023-04-27T00:54:19.089Z,99155.06
2023-04-27T00:54:52.662Z,99157.44
2023-04-27T00:55:26.054Z,99156.79
2023-04-27T00:55:59.223Z,99155.33
2023-04-27T00:56:32.310Z,99157.37
2023-04-27T00:57:05.529Z,99153.92
2023-04-27T00:57:39.173Z,99156.14
2023-04-27T00:58:12.429Z,99157.70
2023-04-27T00:58:45.640Z,99156.83
2023-04-27T00:59:19.472Z,99155.78
2023-04-27T00:59:52.746Z,99158.74
2023-04-27T01:00:26.082Z,99156.85
2023-04-27T01:01:00.212Z,99157.23
2023-04-27T01:01:33.784Z,99156.85
2023-04-27T01:02:07.053Z,99155.55
2023-04-27T01:02:40.766Z,99154.19
2023-04-27T01:03:14.477Z,99157.27
2023-04-27T01:03:48.334Z,99155.58
2023-04-27T01:04:22.684Z,99160.07
2023-04-27T01:04:56.136Z,99158.14
2023-04-27T01:05:31.268Z,99157.67
2023-04-27T01:06:05.993Z,99160.48
2023-04-27T01:06:39.520Z,99158.45
2023-04-27T01:07:12.694Z,99156.55
2023-04-27T01:07:46.009Z,99160.07
2023-04-27T01:08:19.192Z,99155.03
2023-04-27T01:08:52.522Z,99155.55
2023-04-27T01:09:25.801Z,99154.70
2023-04-27T01:09:58.938Z,99156.75
2023-04-27T01:10:32.292Z,99157.52
2023-04-27T01:11:05.717Z,99158.76
2023-04-27T01:11:38.897Z,99156.11
2023-04-27T01:12:12.147Z,99156.86
2023-04-27T01:12:45.446Z,99156.15
2023-04-27T01:13:18.721Z,99157.03
2023-04-27T01:13:52.452Z,99159.05
2023-04-27T01:14:25.533Z,99159.27
2023-04-27T01:14:58.816Z,99160.65
2023-04-27T01:15:32.066Z,99160.35
2023-04-27T01:16:05.543Z,99163.73
2023-04-27T01:16:39.207Z,99161.33
2023-04-27T01:17:12.549Z,99160.64
2023-04-27T01:17:46.818Z,99162.37
2023-04-27T01:18:20.097Z,99162.04
2023-04-27T01:18:53.559Z,99162.57
2023-04-27T01:19:27.061Z,99160.56
2023-04-27T01:20:00.501Z,99162.23
2023-04-27T01:20:33.811Z,99161.77
2023-04-27T01:21:07.581Z,99160.86
2023-04-27T01:21:41.084Z,99158.48
2023-04-27T01:22:15.471Z,99163.52
2023-04-27T01:22:48.690Z,99161.28
2023-04-27T01:23:22.154Z,99163.02
2023-04-27T01:23:55.765Z,99161.52
2023-04-27T01:24:28.967Z,99161.88
2023-04-27T01:25:02.075Z,99158.87
2023-04-27T01:25:35.272Z,99162.60
2023-04-27T01:26:08.485Z,99161.91
2023-04-27T01:26:41.720Z,99161.77
2023-04-27T01:27:14.919Z,99161.53
2023-04-27T01:27:48.469Z,99163.27
2023-04-27T01:28:21.640Z,99163.44
2023-04-27T01:28:54.793Z,99162.56
2023-04-27T01:29:28.183Z,99164.81
2023-04-27T01:30:01.284Z,99159.64
2023-04-27T01:30:34.470Z,99161.85
2023-04-27T01:31:07.736Z,99161.64
2023-04-27T01:31:41.131Z,99160.23
2023-04-27T01:32:14.535Z,99164.21
2023-04-27T01:32:47.682Z,99160.57
2023-04-27T01:33:21.109Z,99161.14
2023-04-27T01:33:55.217Z,99160.95
2023-04-27T01:34:28.393Z,99162.48
2023-04-27T01:35:01.572Z,99162.02
2023-04-27T01:35:34.722Z,99161.14
2023-04-27T01:36:08.710Z,99162.56
2023-04-27T01:36:41.825Z,99158.95
2023-04-27T01:37:16.072Z,99159.55
2023-04-27T01:37:49.151Z,99162.11
2023-04-27T01:38:24.451Z,99160.00
2023-04-27T01:38:58.324Z,99160.20
2023-04-27T01:39:31.603Z,99160.32
2023-04-27T01:40:06.836Z,99161.37
2023-04-27T01:40:39.989Z,99163.77
2023-04-27T01:41:13.347Z,99162.95
2023-04-27T01:41:46.433Z,99163.48
2023-04-27T01:42:19.584Z,99162.95
2023-04-27T01:42:52.676Z,99166.44
2023-04-27T01:43:26.610Z,99165.39
2023-04-27T01:43:59.754Z,99163.02
2023-04-27T01:44:33.119Z,99163.32
2023-04-27T01:45:06.717Z,99165.77
2023-04-27T01:45:40.314Z,99162.79
2023-04-27T01:46:14.383Z,99161.55
2023-04-27T01:46:47.546Z,99163.18
2023-04-27T01:47:21.139Z,99163.27
2023-04-27T01:47:54.379Z,99162.73
2023-04-27T01:48:27.607Z,99163.74
2023-04-27T01:49:01.724Z,99163.78
2023-04-27T01:49:34.927Z,99163.23
2023-04-27T01:50:08.207Z,99165.86
2023-04-27T01:50:41.421Z,99165.73
2023-04-27T01:51:15.430Z,99165.23
2023-04-27T01:51:48.622Z,99167.29
2023-04-27T01:52:21.691Z,99165.05
2023-04-27T01:52:54.858Z,99166.93
2023-04-27T01:53:28.162Z,99166.96
2023-04-27T01:54:01.288Z,99166.63
2023-04-27T01:54:34.527Z,99165.76
2023-04-27T01:55:08.203Z,99168.52
2023-04-27T01:55:41.757Z,99166.80
2023-04-27T01:56:14.975Z,99168.83
2023-04-27T01:56:48.076Z,99166.45
2023-04-27T01:57:21.655Z,99167.64
2023-04-27T01:57:54.982Z,99166.27
2023-04-27T01:58:28.419Z,99168.71
2023-04-27T01:59:01.518Z,99166.83
2023-04-27T01:59:34.654Z,99169.07
2023-04-27T02:00:08.457Z,99169.12
2023-04-27T02:00:41.577Z,99168.47
2023-04-27T02:01:14.859Z,99169.48
2023-04-27T02:01:48.123Z,99169.48
2023-04-27T02:02:21.453Z,99170.68
2023-04-27T02:02:57.736Z,99169.13
2023-04-27T02:03:31.262Z,99169.81
2023-04-27T02:04:04.832Z,99170.34
2023-04-27T02:04:38.444Z,99167.76
2023-04-27T02:05:11.910Z,99165.29
2023-04-27T02:05:45.195Z,99169.65
2023-04-27T02:06:18.286Z,99167.70
2023-04-27T02:06:51.510Z,99167.86
2023-04-27T02:07:24.636Z,99170.01
2023-04-27T02:07:57.858Z,99167.20
2023-04-27T02:08:31.047Z,99167.59
2023-04-27T02:09:04.183Z,99166.60
2023-04-27T02:09:37.664Z,99166.83
2023-04-27T02:10:11.133Z,99168.23
2023-04-27T02:10:44.370Z,99169.82
2023-04-27T02:11:17.499Z,99167.82
2023-04-27T02:11:50.635Z,99167.36
2023-04-27T02:12:23.745Z,99167.84
2023-04-27T02:12:57.420Z,99169.41
2023-04-27T02:13:30.617Z,99166.09
2023-04-27T02:14:03.779Z,99167.33
2023-04-27T02:14:36.993Z,99168.02
2023-04-27T02:15:10.261Z,99167.16
2023-04-27T02:15:43.456Z,99169.90
2023-04-27T02:16:16.647Z,99168.34
2023-04-27T02:16:49.862Z,99170.04
2023-04-27T02:17:23.354Z,99168.34
2023-04-27T02:17:57.503Z,99172.84
2023-04-27T02:18:30.974Z,99173.74
2023-04-27T02:19:04.506Z,99173.38
2023-04-27T02:19:37.743Z,99172.12
2023-04-27T02:20:11.497Z,99170.75
2023-04-27T02:20:44.730Z,99170.80
2023-04-27T02:21:17.947Z,99174.31
2023-04-27T02:21:51.025Z,99175.55
2023-04-27T02:22:24.242Z,99173.14
2023-04-27T02:22:57.781Z,99173.14
2023-04-27T02:23:30.877Z,99171.58
2023-04-27T02:24:04.766Z,99173.50
2023-04-27T02:24:37.927Z,99173.30
2023-04-27T02:25:11.933Z,99174.64
2023-04-27T02:25:47.063Z,99174.67
2023-04-27T02:26:20.824Z,99174.11
2023-04-27T02:26:54.037Z,99174.48
2023-04-27T02:27:27.326Z,99173.50
2023-04-27T02:28:01.267Z,99172.45
2023-04-27T02:28:35.068Z,99177.66
2023-04-27T02:29:08.672Z,99176.05
2023-04-27T02:29:43.542Z,99176.05
2023-04-27T02:30:17.042Z,99176.56
2023-04-27T02:30:50.730Z,99175.39
2023-04-27T02:31:24.123Z,99177.80
2023-04-27T02:31:57.396Z,99174.17
2023-04-27T02:32:31.393Z,99178.37
2023-04-27T02:33:05.336Z,99178.04
2023-04-27T02:33:38.624Z,99176.24
2023-04-27T02:34:11.809Z,99175.56
2023-04-27T02:34:45.385Z,99176.24
2023-04-27T02:35:18.647Z,99173.52
2023-04-27T02:35:51.974Z,99179.59
2023-04-27T02:36:25.266Z,99180.11
2023-04-27T02:36:58.482Z,99179.80
2023-04-27T02:37:31.687Z,99182.20
2023-04-27T02:38:04.845Z,99176.46
2023-04-27T02:38:38.063Z,99178.13
2023-04-27T02:39:13.055Z,99180.60
2023-04-27T02:39:47.759Z,99178.08
2023-04-27T02:40:21.288Z,99178.57
2023-04-27T02:40:55.248Z,99179.45
2023-04-27T02:41:31.580Z,99182.73
2023-04-27T02:42:04.781Z,99182.41
2023-04-27T02:42:39.196Z,99183.41
2023-04-27T02:43:12.734Z,99185.04
2023-04-27T02:43:47.060Z,99182.79
2023-04-27T02:44:20.147Z,99182.95
2023-04-27T02:44:53.352Z,99183.83
2023-04-27T02:45:26.529Z,99185.89
2023-04-27T02:46:06.013Z,99185.72
2023-04-27T02:46:39.277Z,99182.66
2023-04-27T02:47:12.762Z,99182.13
2023-04-27T02:47:45.904Z,99186.46
2023-04-27T02:48:19.195Z,99184.21
2023-04-27T02:48:52.359Z,99185.25
2023-04-27T02:49:25.509Z,99188.73
2023-04-27T02:49:58.732Z,99191.36
2023-04-27T02:50:31.818Z,99189.13
2023-04-27T02:51:05.388Z,99191.42
2023-04-27T02:51:38.598Z,99189.70
2023-04-27T02:52:11.851Z,99192.79
2023-04-27T02:52:45.013Z,99189.87
2023-04-27T02:53:18.343Z,99192.41
2023-04-27T02:53:53.309Z,99194.13
2023-04-27T02:54:26.787Z,99191.04
2023-04-27T02:55:00.158Z,99190.52
2023-04-27T02:55:33.460Z,99194.46
2023-04-27T02:56:06.662Z,99194.88
2023-04-27T02:56:39.930Z,99191.04
2023-04-27T02:57:13.106Z,99191.77
2023-04-27T02:57:46.587Z,99192.50
2023-04-27T02:58:20.215Z,99190.79
2023-04-27T02:58:53.454Z,99192.38
2023-04-27T02:59:26.786Z,99187.40
2023-04-27T03:00:00.048Z,99190.99
2023-04-27T03:00:33.316Z,99187.39
2023-04-27T03:01:06.547Z,99190.02
2023-04-27T03:01:39.905Z,99192.00
2023-04-27T03:02:13.130Z,99189.48
2023-04-27T03:02:46.549Z,99192.44
2023-04-27T03:03:20.023Z,99192.27
2023-04-27T03:03:53.579Z,99194.01
2023-04-27T03:04:28.393Z,99191.92
2023-04-27T03:05:01.897Z,99190.55
2023-04-27T03:05:35.064Z,99193.33
2023-04-27T03:06:08.231Z,99190.71
2023-04-27T03:06:41.792Z,99193.29
2023-04-27T03:07:14.944Z,99192.66
2023-04-27T03:07:48.156Z,99195.95
2023-04-27T03:08:21.306Z,99194.80
2023-04-27T03:08:54.561Z,99194.15
2023-04-27T03:09:27.698Z,99194.66
2023-04-27T03:10:00.884Z,99195.73
2023-04-27T03:10:34.056Z,99194.70
2023-04-27T03:11:07.471Z,99197.48
2023-04-27T03:11:40.585Z,99196.64
2023-04-27T03:12:13.897Z,99198.06
2023-04-27T03:12:47.109Z,99197.73
2023-04-27T03:13:20.564Z,99200.52
2023-04-27T03:13:53.713Z,99203.52
2023-04-27T03:14:26.937Z,99201.76
2023-04-27T03:15:01.221Z,99201.20
2023-04-27T03:15:35.036Z,99203.19
2023-04-27T03:16:11.821Z,99201.46
2023-04-27T03:16:45.270Z,99202.52
2023-04-27T03:17:18.526Z,99204.27
2023-04-27T03:17:51.727Z,99203.02
2023-04-27T03:18:25.022Z,99202.23
2023-04-27T03:18:58.248Z,99203.42
2023-04-27T03:19:31.461Z,99203.14
2023-04-27T03:20:07.221Z,99205.90
2023-04-27T03:20:40.483Z,99204.58
2023-04-27T03:21:13.781Z,99202.98
2023-04-27T03:21:46.925Z,99208.34
2023-04-27T03:22:20.038Z,99207.19
2023-04-27T03:22:53.128Z,99210.11
2023-04-27T03:23:26.263Z,99208.36
2023-04-27T03:23:59.314Z,99209.59
2023-04-27T03:24:33.394Z,99204.91
2023-04-27T03:25:07.184Z,99208.61
2023-04-27T03:25:40.390Z,99208.61
2023-04-27T03:26:14.354Z,99210.72
2023-04-27T03:26:47.742Z,99212.27
2023-04-27T03:27:20.964Z,99210.75
2023-04-27T03:27:54.104Z,99211.57
2023-04-27T03:28:27.320Z,99213.45
2023-04-27T03:29:01.141Z,99213.52
2023-04-27T03:29:34.336Z,99213.38
2023-04-27T03:30:07.778Z,99215.92
2023-04-27T03:30:41.511Z,99213.13
2023-04-27T03:31:15.175Z,99212.44
2023-04-27T03:31:48.393Z,99215.90
2023-04-27T03:32:21.677Z,99213.65
2023-04-27T03:32:54.934Z,99215.56
2023-04-27T03:33:28.996Z,99216.89
2023-04-27T03:34:02.486Z,99216.89
2023-04-27T03:34:35.688Z,99214.00
2023-04-27T03:35:10.050Z,99216.80
2023-04-27T03:35:43.332Z,99214.91
2023-04-27T03:36:16.679Z,99219.02
2023-04-27T03:36:49.924Z,99218.79
2023-04-27T03:37:23.057Z,99219.54
2023-04-27T03:37:56.181Z,99221.27
2023-04-27T03:38:29.458Z,99221.45
2023-04-27T03:39:03.099Z,99223.02
2023-04-27T03:39:36.482Z,99221.17
2023-04-27T03:40:10.156Z,99223.59
2023-04-27T03:40:43.220Z,99224.46
2023-04-27T03:41:16.303Z,99224.27
2023-04-27T03:41:49.469Z,99222.14
2023-04-27T03:42:22.743Z,99227.31
2023-04-27T03:42:56.640Z,99227.95
2023-04-27T03:43:31.306Z,99228.11
2023-04-27T03:44:04.573Z,99226.52
2023-04-27T03:44:37.768Z,99225.84
2023-04-27T03:45:12.518Z,99227.56
2023-04-27T03:45:46.048Z,99228.92
2023-04-27T03:46:19.249Z,99226.65
2023-04-27T03:46:52.504Z,99226.30
2023-04-27T03:47:25.664Z,99229.25
2023-04-27T03:47:59.427Z,99228.22
2023-04-27T03:48:32.775Z,99230.95
2023-04-27T03:49:05.988Z,99231.25
2023-04-27T03:49:39.277Z,99229.89
2023-04-27T03:50:12.441Z,99228.33
2023-04-27T03:50:46.792Z,99233.91
2023-04-27T03:51:19.989Z,99230.98
2023-04-27T03:51:53.316Z,99229.23
2023-04-27T03:52:26.755Z,99231.51
2023-04-27T03:52:59.990Z,99233.58
2023-04-27T03:53:33.204Z,99236.33
2023-04-27T03:54:07.015Z,99231.12
2023-04-27T03:54:40.258Z,99234.40
2023-04-27T03:55:13.838Z,99231.15
2023-04-27T03:55:47.913Z,99233.59
2023-04-27T03:56:21.384Z,99232.22
2023-04-27T03:56:54.664Z,99231.80
2023-04-27T03:57:27.807Z,99232.92
2023-04-27T03:58:01.201Z,99233.83
2023-04-27T03:58:34.494Z,99233.77
2023-04-27T03:59:07.693Z,99236.95
2023-04-27T03:59:40.986Z,99234.02
2023-04-27T04:00:16.056Z,99236.55
2023-04-27T04:00:49.236Z,99234.05
2023-04-27T04:01:22.471Z,99236.13
2023-04-27T04:01:55.748Z,99237.27
2023-04-27T04:02:28.966Z,99237.24
2023-04-27T04:03:03.031Z,99237.80
2023-04-27T04:04:10.536Z,99239.41
2023-04-27T04:04:44.083Z,99239.44
2023-04-27T04:05:17.558Z,99241.98
2023-04-27T04:05:50.799Z,99244.02
2023-04-27T04:06:23.984Z,99245.22
2023-04-27T04:06:57.070Z,99243.63
2023-04-27T04:07:30.188Z,99242.75
2023-04-27T04:08:03.798Z,99241.84
2023-04-27T04:08:37.761Z,99246.98
2023-04-27T04:09:11.164Z,99247.14
2023-04-27T04:09:44.818Z,99249.32
2023-04-27T04:10:18.676Z,99249.84
2023-04-27T04:10:51.975Z,99251.00
2023-04-27T04:11:25.176Z,99253.63
2023-04-27T04:11:58.400Z,99250.50
2023-04-27T04:12:31.923Z,99252.61
2023-04-27T04:13:04.993Z,99254.61
2023-04-27T04:13:38.338Z,99254.96
2023-04-27T04:14:11.884Z,99254.77
2023-04-27T04:14:49.124Z,99255.11
2023-04-27T04:15:22.390Z,99255.95
2023-04-27T04:16:06.186Z,99254.73
2023-04-27T04:16:39.676Z,99255.16
2023-04-27T04:17:13.066Z,99256.52
2023-04-27T04:17:47.636Z,99254.77
2023-04-27T04:18:20.843Z,99254.02
2023-04-27T04:18:54.131Z,99255.38
2023-04-27T04:19:27.361Z,99255.71
2023-04-27T04:20:01.823Z,99254.30
2023-04-27T04:20:36.325Z,99256.88
2023-04-27T04:21:10.355Z,99255.96
2023-04-27T04:21:43.563Z,99254.21
2023-04-27T04:22:16.939Z,99258.52
2023-04-27T04:22:50.385Z,99255.34
2023-04-27T04:23:23.884Z,99256.88
2023-04-27T04:23:57.487Z,99257.20
2023-04-27T04:24:30.920Z,99259.75
2023-04-27T04:25:04.623Z,99258.16
2023-04-27T04:25:40.508Z,99260.71
2023-04-27T04:26:15.169Z,99256.67
2023-04-27T04:26:48.906Z,99264.18
2023-04-27T04:27:22.255Z,99261.03
2023-04-27T04:27:55.601Z,99262.87
2023-04-27T04:28:28.851Z,99258.15
2023-04-27T04:29:02.254Z,99260.48
2023-04-27T04:29:35.670Z,99263.23
2023-04-27T04:30:09.041Z,99264.63
2023-04-27T04:30:43.524Z,99262.70
2023-04-27T04:31:18.511Z,99265.21
2023-04-27T04:31:52.409Z,99266.05
2023-04-27T04:32:31.661Z,99266.67
2023-04-27T04:33:05.020Z,99266.45
2023-04-27T04:33:38.359Z,99268.29
2023-04-27T04:34:11.622Z,99267.36
2023-04-27T04:34:49.671Z,99266.12
2023-04-27T04:35:22.989Z,99268.29
2023-04-27T04:35:56.352Z,99267.54
2023-04-27T04:36:29.462Z,99268.51
2023-04-27T04:37:03.010Z,99269.46
2023-04-27T04:37:36.763Z,99273.23
2023-04-27T04:38:13.381Z,99271.81
2023-04-27T04:38:47.472Z,99269.57
2023-04-27T04:39:20.949Z,99269.45
2023-04-27T04:39:54.353Z,99270.66
2023-04-27T04:40:27.843Z,99271.61
2023-04-27T04:41:01.275Z,99272.59
2023-04-27T04:41:34.492Z,99271.30
2023-04-27T04:42:07.747Z,99275.89
2023-04-27T04:42:41.616Z,99276.13
2023-04-27T04:43:14.763Z,99276.70
2023-04-27T04:43:49.760Z,99280.61
2023-04-27T04:44:23.041Z,99277.38
2023-04-27T04:44:57.277Z,99277.64
2023-04-27T04:45:30.588Z,99278.57
2023-04-27T04:46:03.789Z,99281.09
2023-04-27T04:46:37.572Z,99279.05
2023-04-27T04:47:10.977Z,99280.67
2023-04-27T04:47:44.212Z,99281.60
2023-04-27T04:48:18.351Z,99284.27
2023-04-27T04:48:53.995Z,99282.42
2023-04-27T04:49:28.208Z,99279.36
2023-04-27T04:50:01.767Z,99280.16
2023-04-27T04:50:35.183Z,99280.77
2023-04-27T04:51:08.337Z,99283.29
2023-04-27T04:51:45.906Z,99284.64
2023-04-27T04:52:19.276Z,99287.09
2023-04-27T04:52:52.639Z,99287.52
2023-04-27T04:53:26.549Z,99289.14
2023-04-27T04:54:01.725Z,99290.81
2023-04-27T04:54:35.560Z,99292.84
2023-04-27T04:55:08.862Z,99291.16
2023-04-27T04:55:42.126Z,99292.80
2023-04-27T04:56:15.286Z,99293.46
2023-04-27T04:56:48.523Z,99294.59
2023-04-27T04:57:22.419Z,99298.64
2023-04-27T04:57:55.713Z,99298.44
2023-04-27T04:58:28.882Z,99295.39
2023-04-27T04:59:02.259Z,99300.23
2023-04-27T04:59:35.490Z,99295.86
2023-04-27T05:00:13.164Z,99296.61
2023-04-27T05:00:46.550Z,99295.80
2023-04-27T05:01:19.743Z,99297.66
2023-04-27T05:01:55.895Z,99295.02
2023-04-27T05:02:29.584Z,99295.11
2023-04-27T05:03:03.266Z,99300.07
2023-04-27T05:03:36.885Z,99301.50
2023-04-27T05:04:11.355Z,99302.79
2023-04-27T05:04:45.022Z,99306.02
2023-04-27T05:05:18.556Z,99307.75
2023-04-27T05:05:51.733Z,99302.84
2023-04-27T05:06:25.077Z,99304.05
2023-04-27T05:07:00.281Z,99305.67
2023-04-27T05:07:34.023Z,99299.05
2023-04-27T05:08:07.405Z,99306.86
2023-04-27T05:08:40.887Z,99302.04
2023-04-27T05:09:14.332Z,99304.60
2023-04-27T05:09:47.977Z,99304.89
2023-04-27T05:10:21.273Z,99308.21
2023-04-27T05:10:54.682Z,99307.65
2023-04-27T05:11:28.116Z,99309.52
2023-04-27T05:12:02.095Z,99310.27
2023-04-27T05:12:35.389Z,99311.68
2023-04-27T05:13:08.725Z,99313.05
2023-04-27T05:13:42.077Z,99308.46
2023-04-27T05:14:15.253Z,99310.71
2023-04-27T05:14:48.699Z,99309.98
2023-04-27T05:15:21.980Z,99307.81
2023-04-27T05:15:55.268Z,99307.53
2023-04-27T05:16:28.579Z,99306.98
2023-04-27T05:17:01.947Z,99308.80
2023-04-27T05:17:35.171Z,99309.46
2023-04-27T05:18:08.489Z,99310.44
2023-04-27T05:18:41.968Z,99308.84
2023-04-27T05:19:18.689Z,99308.69
2023-04-27T05:19:51.891Z,99306.02
2023-04-27T05:20:25.227Z,99306.77
2023-04-27T05:20:58.656Z,99305.73
2023-04-27T05:21:32.347Z,99308.27
2023-04-27T05:22:05.756Z,99308.06
2023-04-27T05:22:39.083Z,99307.96
2023-04-27T05:23:12.525Z,99310.41
2023-04-27T05:23:45.706Z,99306.85
2023-04-27T05:24:18.872Z,99304.40
2023-04-27T05:24:52.190Z,99306.79
2023-04-27T05:25:25.443Z,99303.48
2023-04-27T05:25:58.713Z,99304.11
2023-04-27T05:26:31.972Z,99304.74
2023-04-27T05:27:05.195Z,99300.92
2023-04-27T05:27:38.499Z,99303.96
2023-04-27T05:28:11.829Z,99303.45
2023-04-27T05:28:45.322Z,99306.65
2023-04-27T05:29:18.605Z,99306.50
2023-04-27T05:29:51.897Z,99307.33
2023-04-27T05:30:25.460Z,99309.06
2023-04-27T05:30:58.638Z,99309.58
2023-04-27T05:31:31.988Z,99309.95
2023-04-27T05:32:05.483Z,99311.09
2023-04-27T05:32:39.794Z,99312.24
2023-04-27T05:33:13.126Z,99312.80
2023-04-27T05:33:46.594Z,99315.70
2023-04-27T05:34:20.127Z,99316.75
2023-04-27T05:34:53.406Z,99315.42
2023-04-27T05:35:26.600Z,99317.86
2023-04-27T05:36:00.233Z,99317.20
2023-04-27T05:36:33.633Z,99320.42
2023-04-27T05:37:07.558Z,99321.10
2023-04-27T05:37:40.995Z,99322.67
2023-04-27T05:38:17.665Z,99325.91
2023-04-27T05:38:51.004Z,99325.11
2023-04-27T05:39:24.338Z,99321.85
2023-04-27T05:39:57.476Z,99324.11
2023-04-27T05:40:30.954Z,99324.22
2023-04-27T05:41:04.270Z,99323.13
2023-04-27T05:41:37.719Z,99321.48
2023-04-27T05:42:11.036Z,99325.89
2023-04-27T05:42:46.679Z,99323.91
2023-04-27T05:43:19.885Z,99325.26
2023-04-27T05:43:53.822Z,99323.39
2023-04-27T05:44:29.676Z,99325.85
2023-04-27T05:45:04.334Z,99326.45
2023-04-27T05:45:39.650Z,99326.52
2023-04-27T05:46:16.599Z,99327.08
2023-04-27T05:46:50.086Z,99328.48
2023-04-27T05:47:23.607Z,99328.57
2023-04-27T05:47:56.861Z,99327.61
2023-04-27T05:48:30.256Z,99332.27
2023-04-27T05:49:03.715Z,99332.03
2023-04-27T05:49:37.477Z,99330.23
2023-04-27T05:50:11.499Z,99329.08
2023-04-27T05:50:44.765Z,99329.58
2023-04-27T05:51:18.123Z,99333.75
2023-04-27T05:51:52.194Z,99334.75
2023-04-27T05:52:31.133Z,99333.34
2023-04-27T05:53:05.957Z,99334.33
2023-04-27T05:53:39.344Z,99333.45
2023-04-27T05:54:12.516Z,99336.85
2023-04-27T05:54:49.845Z,99335.40
2023-04-27T05:55:23.453Z,99334.23
2023-04-27T05:55:59.350Z,99336.65
2023-04-27T05:56:32.706Z,99336.88
2023-04-27T05:57:06.385Z,99336.80
2023-04-27T05:57:39.774Z,99337.77
2023-04-27T05:58:13.667Z,99337.64
2023-04-27T05:58:47.734Z,99339.67
2023-04-27T05:59:22.186Z,99341.76
2023-04-27T05:59:55.933Z,99337.55
2023-04-27T06:00:29.716Z,99338.96
2023-04-27T06:01:04.216Z,99339.91
2023-04-27T06:01:37.487Z,99340.74
2023-04-27T06:02:10.866Z,99340.47
2023-04-27T06:02:44.549Z,99337.84
2023-04-27T06:03:18.101Z,99339.83
2023-04-27T06:03:51.966Z,99338.20
2023-04-27T06:04:25.705Z,99340.38
2023-04-27T06:04:59.220Z,99339.84
2023-04-27T06:05:34.684Z,99337.87
2023-04-27T06:06:08.236Z,99336.89
2023-04-27T06:06:41.526Z,99337.77
2023-04-27T06:07:16.352Z,99338.58
2023-04-27T06:07:49.644Z,99341.23
2023-04-27T06:08:23.094Z,99336.59
2023-04-27T06:08:56.300Z,99339.92
2023-04-27T06:09:30.400Z,99339.13
2023-04-27T06:10:03.608Z,99338.27
2023-04-27T06:10:37.174Z,99337.55
2023-04-27T06:11:10.894Z,99344.35
2023-04-27T06:11:44.095Z,99343.42
2023-04-27T06:12:17.405Z,99339.08
2023-04-27T06:12:50.461Z,99345.85
2023-04-27T06:13:23.915Z,99341.64
2023-04-27T06:13:57.186Z,99344.85
2023-04-27T06:14:33.724Z,99345.26
2023-04-27T06:15:10.543Z,99344.91
2023-04-27T06:15:44.295Z,99345.90
2023-04-27T06:16:17.787Z,99346.56
2023-04-27T06:16:51.313Z,99346.01
2023-04-27T06:17:24.523Z,99349.63
2023-04-27T06:17:57.746Z,99348.06
2023-04-27T06:18:31.913Z,99351.20
2023-04-27T06:19:05.203Z,99350.15
2023-04-27T06:19:38.372Z,99348.59
2023-04-27T06:20:12.131Z,99355.63
2023-04-27T06:20:45.353Z,99350.92
2023-04-27T06:21:18.660Z,99350.31
2023-04-27T06:21:52.037Z,99353.52
2023-04-27T06:22:25.317Z,99358.14
2023-04-27T06:23:00.393Z,99358.15
2023-04-27T06:23:33.648Z,99355.02
2023-04-27T06:24:07.083Z,99356.13
2023-04-27T06:24:42.698Z,99354.36
2023-04-27T06:25:15.817Z,99355.77
2023-04-27T06:25:48.952Z,99356.41
2023-04-27T06:26:22.102Z,99355.25
2023-04-27T06:26:55.274Z,99352.34
2023-04-27T06:27:28.485Z,99349.41
2023-04-27T06:28:01.701Z,99350.88
2023-04-27T06:28:34.903Z,99351.27
2023-04-27T06:29:08.387Z,99350.90
2023-04-27T06:29:41.741Z,99352.89
2023-04-27T06:30:14.980Z,99354.77
2023-04-27T06:30:48.237Z,99353.13
2023-04-27T06:31:21.610Z,99355.11
2023-04-27T06:31:54.832Z,99357.50
2023-04-27T06:32:27.983Z,99357.27
2023-04-27T06:33:01.189Z,99356.73
2023-04-27T06:33:34.377Z,99351.27
2023-04-27T06:34:07.808Z,99351.58
2023-04-27T06:34:41.647Z,99352.35
2023-04-27T06:35:15.321Z,99354.02
2023-04-27T06:35:48.537Z,99354.46